createdAt,value
2023-02-21T00:00:53.285Z,2.05
2023-02-21T00:03:38.738Z,2.38
2023-02-21T00:06:27.083Z,2.33
2023-02-21T00:09:12.637Z,2.05
2023-02-21T00:12:03.915Z,2.47
2023-02-21T00:14:49.478Z,2.67
2023-02-21T00:17:34.917Z,1.70
2023-02-21T00:20:20.263Z,2.50
2023-02-21T00:23:05.807Z,2.20
2023-02-21T00:25:51.315Z,3.00
2023-02-21T00:28:36.756Z,2.13
2023-02-21T00:31:23.938Z,2.70
2023-02-21T00:35:01.051Z,2.42
2023-02-21T00:37:51.313Z,3.55
2023-02-21T00:40:36.532Z,3.38
2023-02-21T00:43:22.064Z,3.20
2023-02-21T00:46:07.323Z,4.05
2023-02-21T00:48:52.636Z,4.78
2023-02-21T00:51:37.880Z,5.00
2023-02-21T00:54:23.127Z,4.78
2023-02-21T00:57:08.648Z,4.05
2023-02-21T00:59:53.952Z,4.72
2023-02-21T01:02:39.470Z,4.47
2023-02-21T01:05:24.974Z,4.55
2023-02-21T01:08:10.159Z,4.63
2023-02-21T01:10:58.633Z,3.65
2023-02-21T01:13:43.775Z,3.55
2023-02-21T01:16:29.086Z,3.05
2023-02-21T01:19:14.534Z,3.00
2023-02-21T01:21:59.945Z,3.45
2023-02-21T01:24:45.038Z,4.45
2023-02-21T01:27:30.402Z,4.03
2023-02-21T01:30:15.874Z,3.40
2023-02-21T01:33:01.218Z,4.05
2023-02-21T01:35:46.636Z,3.97
2023-02-21T01:38:32.146Z,3.47
2023-02-21T01:41:17.513Z,3.47
2023-02-21T01:44:24.301Z,4.25
2023-02-21T01:47:09.532Z,3.92
2023-02-21T01:49:59.554Z,2.85
2023-02-21T01:52:45.412Z,2.75
2023-02-21T01:55:30.968Z,2.33
2023-02-21T01:58:16.449Z,2.30
2023-02-21T02:01:02.152Z,2.55
2023-02-21T02:03:49.318Z,2.63
2023-02-21T02:06:35.839Z,2.63
2023-02-21T02:09:38.700Z,3.00
2023-02-21T02:12:36.795Z,3.72
2023-02-21T02:15:23.950Z,2.42
2023-02-21T02:18:08.721Z,2.47
2023-02-21T02:21:02.573Z,2.15
2023-02-21T02:24:05.274Z,1.52
2023-02-21T02:27:08.298Z,2.08
2023-02-21T02:29:38.576Z,1.67
2023-02-21T02:32:13.591Z,1.70
2023-02-21T02:34:57.172Z,1.75
2023-02-21T02:37:32.779Z,1.85
2023-02-21T02:40:14.788Z,1.50
2023-02-21T02:43:10.522Z,1.70
2023-02-21T02:45:58.319Z,1.38
2023-02-21T02:48:33.886Z,1.07
2023-02-21T02:51:03.778Z,2.13
2023-02-21T02:53:30.849Z,1.90
2023-02-21T02:56:02.396Z,1.20
2023-02-21T02:58:40.603Z,1.58
2023-02-21T03:01:26.183Z,1.65
2023-02-21T03:04:08.763Z,1.30
2023-02-21T03:06:47.845Z,1.38
2023-02-21T03:09:23.699Z,1.60
2023-02-21T03:12:06.050Z,1.33
2023-02-21T03:14:58.814Z,1.83
2023-02-21T03:17:28.856Z,1.70
2023-02-21T03:19:58.531Z,1.52
2023-02-21T03:22:30.560Z,1.80
2023-02-21T03:25:01.707Z,2.03
2023-02-21T03:27:30.912Z,2.30
2023-02-21T03:30:04.636Z,2.28
2023-02-21T03:32:36.747Z,2.40
2023-02-21T03:35:05.887Z,2.10
2023-02-21T03:37:37.887Z,2.53
2023-02-21T03:40:11.970Z,1.60
2023-02-21T03:42:38.674Z,2.53
2023-02-21T03:45:06.367Z,2.17
2023-02-21T03:47:33.631Z,2.30
2023-02-21T03:50:01.835Z,2.58
2023-02-21T03:52:28.592Z,2.15
2023-02-21T03:54:55.337Z,2.13
2023-02-21T03:57:25.112Z,2.10
2023-02-21T04:02:19.815Z,2.72
2023-02-21T04:04:48.544Z,2.85
2023-02-21T04:07:19.743Z,2.10
2023-02-21T04:09:48.859Z,2.22
2023-02-21T04:12:21.698Z,1.90
2023-02-21T04:14:49.059Z,1.98
2023-02-21T04:17:16.223Z,1.52
2023-02-21T04:19:43.846Z,2.35
2023-02-21T04:22:10.750Z,1.75
2023-02-21T04:24:37.490Z,2.22
2023-02-21T04:29:34.736Z,2.03
2023-02-21T04:32:03.088Z,1.85
2023-02-21T04:34:31.406Z,1.83
2023-02-21T04:36:58.115Z,1.98
2023-02-21T04:39:25.714Z,1.80
2023-02-21T04:41:52.457Z,1.48
2023-02-21T04:44:19.138Z,1.90
2023-02-21T04:46:45.849Z,3.05
2023-02-21T04:49:13.678Z,1.58
2023-02-21T04:51:40.374Z,2.30
2023-02-21T04:54:07.791Z,1.45
2023-02-21T04:56:34.644Z,2.00
2023-02-21T04:59:01.350Z,2.40
2023-02-21T05:01:30.661Z,2.05
2023-02-21T05:03:58.878Z,1.60
2023-02-21T05:06:27.257Z,1.92
2023-02-21T05:08:53.964Z,1.48
2023-02-21T05:11:21.413Z,1.17
2023-02-21T05:13:48.247Z,1.30
2023-02-21T05:16:15.360Z,1.77
2023-02-21T05:18:44.208Z,1.70
2023-02-21T05:21:11.126Z,1.77
2023-02-21T05:23:40.452Z,2.10
2023-02-21T05:26:13.537Z,1.42
2023-02-21T05:28:41.554Z,1.83
2023-02-21T05:31:08.834Z,1.75
2023-02-21T05:33:35.820Z,1.75
2023-02-21T05:36:02.552Z,2.10
2023-02-21T05:38:29.249Z,2.33
2023-02-21T05:40:55.977Z,1.50
2023-02-21T05:43:22.978Z,4.40
2023-02-21T05:45:49.674Z,15.40
2023-02-21T05:48:16.398Z,14.63
2023-02-21T05:50:44.941Z,10.80
2023-02-21T05:53:11.630Z,15.77
2023-02-21T05:55:38.298Z,10.63
2023-02-21T05:58:05.130Z,9.45
2023-02-21T06:00:32.001Z,6.72
2023-02-21T06:02:58.842Z,6.35
2023-02-21T06:05:25.768Z,6.13
2023-02-21T06:07:52.722Z,6.45
2023-02-21T06:10:19.951Z,4.95
2023-02-21T06:12:47.005Z,4.60
2023-02-21T06:15:13.779Z,5.30
2023-02-21T06:17:41.127Z,4.85
2023-02-21T06:22:37.121Z,3.58
2023-02-21T06:25:04.107Z,3.92
2023-02-21T06:27:30.772Z,3.95
2023-02-21T06:29:57.576Z,2.28
2023-02-21T06:32:24.446Z,6.22
2023-02-21T06:34:51.150Z,4.53
2023-02-21T06:37:19.093Z,2.55
2023-02-21T06:39:45.953Z,2.63
2023-02-21T06:42:14.932Z,2.15
2023-02-21T06:44:46.042Z,2.67
2023-02-21T06:47:13.386Z,3.85
2023-02-21T06:52:07.896Z,3.58
2023-02-21T06:54:34.981Z,11.32
2023-02-21T06:57:01.772Z,14.30
2023-02-21T06:59:29.194Z,7.90
2023-02-21T07:01:56.736Z,6.13
2023-02-21T07:04:23.948Z,6.93
2023-02-21T07:06:51.054Z,9.05
2023-02-21T07:09:17.974Z,8.15
2023-02-21T07:11:46.812Z,8.48
2023-02-21T07:14:14.035Z,9.55
2023-02-21T07:16:40.888Z,10.60
2023-02-21T07:19:07.638Z,10.10
2023-02-21T07:21:34.367Z,7.40
2023-02-21T07:24:01.246Z,7.38
2023-02-21T07:26:27.887Z,12.75
2023-02-21T07:28:54.641Z,12.88
2023-02-21T07:31:21.900Z,7.90
2023-02-21T07:33:48.798Z,5.95
2023-02-21T07:36:15.801Z,5.10
2023-02-21T07:38:42.451Z,6.95
2023-02-21T07:41:09.201Z,6.28
2023-02-21T07:43:35.939Z,5.20
2023-02-21T07:46:03.393Z,5.80
2023-02-21T07:48:30.373Z,4.30
2023-02-21T07:50:57.066Z,7.68
2023-02-21T07:53:23.717Z,3.90
2023-02-21T07:55:50.441Z,4.68
2023-02-21T07:58:18.755Z,5.07
2023-02-21T08:00:47.075Z,6.07
2023-02-21T08:03:14.238Z,4.50
2023-02-21T08:05:41.697Z,4.85
2023-02-21T08:08:10.040Z,5.28
2023-02-21T08:10:37.031Z,5.70
2023-02-21T08:13:04.788Z,5.57
2023-02-21T08:15:31.651Z,5.70
2023-02-21T08:17:58.323Z,4.68
2023-02-21T08:20:24.992Z,4.63
2023-02-21T08:22:51.651Z,4.65
2023-02-21T08:25:18.360Z,4.57
2023-02-21T08:27:46.349Z,3.33
2023-02-21T08:30:16.476Z,4.78
2023-02-21T08:32:43.860Z,4.70
2023-02-21T08:37:45.423Z,5.43
2023-02-21T08:40:12.783Z,3.83
2023-02-21T08:45:06.785Z,4.28
2023-02-21T08:47:36.543Z,4.15
2023-02-21T08:50:03.710Z,3.78
2023-02-21T08:52:30.377Z,3.95
2023-02-21T08:54:57.072Z,6.57
2023-02-21T08:57:23.919Z,6.75
2023-02-21T08:59:50.652Z,4.65
2023-02-21T09:02:18.151Z,5.00
2023-02-21T09:04:45.783Z,4.40
2023-02-21T09:07:17.322Z,4.35
2023-02-21T09:09:44.288Z,4.13
2023-02-21T09:12:11.595Z,4.20
2023-02-21T09:17:07.787Z,3.95
2023-02-21T09:19:34.542Z,4.47
2023-02-21T09:22:02.906Z,4.32
2023-02-21T09:24:29.813Z,5.28
2023-02-21T09:27:04.769Z,4.88
2023-02-21T09:29:45.005Z,4.70
2023-02-21T09:32:14.107Z,3.80
2023-02-21T09:34:41.403Z,3.95
2023-02-21T09:39:37.853Z,3.80
2023-02-21T09:42:04.775Z,3.92
2023-02-21T09:44:31.543Z,4.45
2023-02-21T09:47:02.512Z,4.30
2023-02-21T09:49:39.212Z,4.10
2023-02-21T09:52:07.248Z,3.67
2023-02-21T09:54:47.267Z,3.90
2023-02-21T09:57:15.775Z,4.13
2023-02-21T09:59:42.825Z,3.83
2023-02-21T10:02:14.464Z,4.38
2023-02-21T10:04:57.514Z,4.40
2023-02-21T10:07:53.968Z,3.25
2023-02-21T10:10:39.556Z,3.10
2023-02-21T10:13:54.252Z,3.13
2023-02-21T10:16:35.812Z,3.17
2023-02-21T10:19:23.472Z,3.15
2023-02-21T10:21:51.231Z,3.90
2023-02-21T10:24:26.043Z,3.30
2023-02-21T10:27:01.168Z,3.30
2023-02-21T10:29:56.178Z,3.25
2023-02-21T10:32:24.811Z,3.15
2023-02-21T10:34:52.391Z,3.25
2023-02-21T10:37:45.664Z,2.47
2023-02-21T10:40:35.044Z,2.80
2023-02-21T10:43:16.547Z,3.25
2023-02-21T10:45:47.034Z,2.83
2023-02-21T10:48:15.400Z,3.15
2023-02-21T10:50:43.944Z,2.97
2023-02-21T10:53:25.531Z,2.53
2023-02-21T10:56:18.547Z,3.03
2023-02-21T10:58:50.637Z,3.13
2023-02-21T11:01:26.222Z,2.60
2023-02-21T11:03:56.870Z,3.05
2023-02-21T11:06:39.255Z,2.90
2023-02-21T11:09:27.454Z,2.50
2023-02-21T11:12:25.236Z,2.78
2023-02-21T11:14:51.884Z,2.88
2023-02-21T11:17:26.253Z,2.40
2023-02-21T11:20:07.945Z,2.78
2023-02-21T11:22:35.073Z,2.58
2023-02-21T11:27:35.242Z,2.67
2023-02-21T11:30:10.744Z,2.53
2023-02-21T11:32:43.344Z,2.30
2023-02-21T11:35:26.107Z,2.38
2023-02-21T11:37:55.127Z,2.20
2023-02-21T11:40:43.084Z,2.03
2023-02-21T11:43:26.481Z,2.60
2023-02-21T11:46:17.183Z,4.30
2023-02-21T11:48:56.857Z,4.13
2023-02-21T11:51:36.016Z,5.00
2023-02-21T11:54:04.672Z,5.82
2023-02-21T11:56:59.008Z,2.88
2023-02-21T11:59:52.424Z,2.00
2023-02-21T12:02:55.019Z,2.38
2023-02-21T12:05:28.993Z,2.55
2023-02-21T12:08:26.120Z,2.53
2023-02-21T12:11:17.810Z,2.00
2023-02-21T12:14:04.610Z,2.28
2023-02-21T12:16:59.510Z,2.22
2023-02-21T12:19:26.122Z,2.10
2023-02-21T12:22:22.978Z,2.40
2023-02-21T12:25:04.046Z,2.25
2023-02-21T12:27:50.935Z,2.08
2023-02-21T12:30:51.835Z,1.50
2023-02-21T12:33:33.959Z,1.83
2023-02-21T12:36:13.665Z,2.00
2023-02-21T12:39:06.368Z,1.80
2023-02-21T12:41:43.436Z,2.08
2023-02-21T12:44:21.320Z,2.07
2023-02-21T12:50:13.136Z,1.80
2023-02-21T12:53:03.365Z,1.88
2023-02-21T12:55:35.298Z,1.83
2023-02-21T12:58:04.903Z,1.90
2023-02-21T13:00:38.520Z,1.90
2023-02-21T13:03:23.842Z,3.40
2023-02-21T13:06:17.190Z,1.73
2023-02-21T13:08:58.829Z,1.55
2023-02-21T13:11:49.898Z,1.90
2023-02-21T13:14:25.920Z,1.77
2023-02-21T13:16:53.736Z,1.50
2023-02-21T13:19:22.223Z,1.83
2023-02-21T13:21:55.303Z,1.83
2023-02-21T13:24:48.643Z,1.90
2023-02-21T13:27:31.418Z,1.20
2023-02-21T13:30:23.334Z,1.23
2023-02-21T13:32:58.476Z,1.30
2023-02-21T13:35:39.270Z,1.60
2023-02-21T13:38:08.506Z,1.20
2023-02-21T13:40:36.662Z,1.05
2023-02-21T13:43:09.861Z,1.13
2023-02-21T13:45:36.642Z,1.38
2023-02-21T13:48:06.041Z,1.33
2023-02-21T13:50:38.717Z,1.20
2023-02-21T13:53:08.848Z,1.10
2023-02-21T13:55:36.881Z,0.95
2023-02-21T13:58:05.225Z,1.13
2023-02-21T14:00:31.965Z,1.20
2023-02-21T14:03:24.927Z,1.08
2023-02-21T14:05:51.768Z,1.15
2023-02-21T14:08:43.652Z,1.27
2023-02-21T14:11:10.456Z,1.35
2023-02-21T14:13:58.610Z,1.48
2023-02-21T14:16:34.132Z,1.45
2023-02-21T14:19:09.690Z,1.33
2023-02-21T14:21:48.347Z,1.17
2023-02-21T14:24:35.276Z,1.48
2023-02-21T14:30:00.664Z,1.38
2023-02-21T14:32:34.982Z,1.30
2023-02-21T14:35:20.137Z,1.20
2023-02-21T14:38:08.516Z,1.20
2023-02-21T14:41:23.284Z,0.85
2023-02-21T14:44:09.472Z,0.98
2023-02-21T14:46:51.148Z,1.17
2023-02-21T14:49:17.746Z,0.80
2023-02-21T14:51:53.725Z,0.77
2023-02-21T14:54:49.135Z,0.73
2023-02-21T14:57:47.655Z,0.88
2023-02-21T15:00:32.171Z,0.90
2023-02-21T15:03:14.592Z,1.05
2023-02-21T15:05:50.497Z,0.73
2023-02-21T15:08:26.005Z,0.75
2023-02-21T15:11:05.471Z,1.00
2023-02-21T15:13:35.861Z,0.65
2023-02-21T15:16:05.212Z,0.80
2023-02-21T15:18:37.418Z,0.73
2023-02-21T15:21:06.179Z,0.80
2023-02-21T15:23:33.388Z,0.68
2023-02-21T15:28:33.259Z,0.75
2023-02-21T15:31:08.064Z,0.90
2023-02-21T15:33:43.280Z,0.80
2023-02-21T15:36:22.265Z,0.70
2023-02-21T15:38:57.837Z,0.70
2023-02-21T15:41:43.241Z,0.73
2023-02-21T15:44:18.122Z,1.13
2023-02-21T15:46:55.408Z,0.80
2023-02-21T15:49:24.329Z,0.90
2023-02-21T15:51:51.548Z,0.60
2023-02-21T15:56:45.680Z,4.78
2023-02-21T15:59:20.265Z,2.78
2023-02-21T16:02:09.679Z,3.30
2023-02-21T16:04:38.687Z,3.00
2023-02-21T16:07:13.300Z,1.38
2023-02-21T16:09:42.399Z,0.98
2023-02-21T16:12:11.904Z,1.30
2023-02-21T16:14:45.171Z,1.08
2023-02-21T16:17:25.221Z,1.48
2023-02-21T16:19:56.017Z,1.90
2023-02-21T16:23:06.321Z,1.65
2023-02-21T16:25:27.037Z,1.02
2023-02-21T16:27:58.957Z,1.02
2023-02-21T16:30:28.641Z,1.08
2023-02-21T16:33:00.857Z,1.67
2023-02-21T16:35:28.263Z,1.30
2023-02-21T16:37:57.542Z,1.55
2023-02-21T16:40:27.477Z,1.10
2023-02-21T16:42:56.036Z,1.05
2023-02-21T16:45:23.833Z,1.20
2023-02-21T16:47:56.998Z,2.20
2023-02-21T16:50:33.677Z,2.60
2023-02-21T16:53:01.299Z,2.30
2023-02-21T16:55:29.358Z,2.28
2023-02-21T16:57:59.783Z,2.55
2023-02-21T17:00:26.640Z,3.17
2023-02-21T17:02:54.043Z,4.38
2023-02-21T17:05:21.886Z,3.90
2023-02-21T17:07:50.031Z,3.05
2023-02-21T17:10:16.945Z,3.50
2023-02-21T17:12:43.668Z,4.50
2023-02-21T17:15:11.014Z,3.25
2023-02-21T17:20:06.566Z,3.50
2023-02-21T17:22:33.653Z,5.57
2023-02-21T17:25:00.840Z,5.40
2023-02-21T17:27:28.115Z,4.32
2023-02-21T17:29:54.955Z,4.63
2023-02-21T17:32:21.622Z,3.50
2023-02-21T17:34:48.275Z,5.70
2023-02-21T17:37:14.955Z,5.32
2023-02-21T17:39:41.600Z,5.22
2023-02-21T17:42:08.300Z,7.20
2023-02-21T17:44:37.599Z,6.60
2023-02-21T17:47:07.414Z,6.50
2023-02-21T17:49:34.204Z,7.72
2023-02-21T17:52:00.888Z,5.22
2023-02-21T17:54:27.568Z,3.90
2023-02-21T17:56:54.337Z,3.78
2023-02-21T17:59:22.222Z,2.30
2023-02-21T18:01:48.907Z,4.43
2023-02-21T18:04:15.675Z,5.55
2023-02-21T18:06:42.880Z,3.47
2023-02-21T18:09:10.945Z,3.05
2023-02-21T18:11:37.694Z,2.67
2023-02-21T18:14:05.436Z,3.67
2023-02-21T18:16:32.263Z,2.38
2023-02-21T18:18:59.251Z,3.05
2023-02-21T18:21:27.390Z,4.47
2023-02-21T18:23:54.470Z,5.30
2023-02-21T18:26:21.611Z,4.70
2023-02-21T18:28:48.469Z,4.45
2023-02-21T18:31:19.775Z,3.13
2023-02-21T18:33:46.763Z,2.78
2023-02-21T18:36:13.457Z,3.10
2023-02-21T18:38:41.268Z,2.28
2023-02-21T18:41:16.851Z,1.98
2023-02-21T18:43:44.155Z,2.25
2023-02-21T18:46:13.477Z,1.88
2023-02-21T18:48:45.077Z,2.83
2023-02-21T18:51:14.440Z,16.48
2023-02-21T18:53:43.977Z,6.53
2023-02-21T18:56:12.488Z,5.43
2023-02-21T18:58:39.361Z,3.67
2023-02-21T19:01:07.282Z,2.95
2023-02-21T19:03:34.021Z,2.65
2023-02-21T19:10:24.531Z,3.20
2023-02-21T19:12:51.315Z,2.40
2023-02-21T19:15:19.226Z,2.85
2023-02-21T19:17:47.787Z,4.25
2023-02-21T19:20:16.263Z,4.72
2023-02-21T19:22:42.919Z,5.57
2023-02-21T19:25:09.740Z,6.05
2023-02-21T19:27:36.454Z,4.50
2023-02-21T19:30:03.759Z,5.90
2023-02-21T19:34:57.412Z,3.50
2023-02-21T19:37:24.153Z,2.70
2023-02-21T19:39:50.855Z,2.85
2023-02-21T19:42:17.534Z,2.00
2023-02-21T19:44:44.203Z,2.70
2023-02-21T19:47:10.841Z,3.95
2023-02-21T19:49:37.502Z,5.05
2023-02-21T19:52:05.316Z,8.30
2023-02-21T19:54:32.028Z,4.38
2023-02-21T19:56:59.972Z,7.22
2023-02-21T19:59:29.210Z,7.18
2023-02-21T20:01:56.439Z,10.05
2023-02-21T20:04:23.695Z,5.60
2023-02-21T20:06:50.814Z,2.88
2023-02-21T20:09:17.698Z,4.50
2023-02-21T20:11:44.446Z,3.90
2023-02-21T20:14:12.312Z,10.15
2023-02-21T20:16:43.664Z,7.30
2023-02-21T20:19:12.146Z,6.13
2023-02-21T20:21:39.627Z,6.20
2023-02-21T20:24:07.309Z,5.53
2023-02-21T20:26:34.125Z,8.18
2023-02-21T20:29:00.825Z,5.43
2023-02-21T20:31:29.965Z,7.32
2023-02-21T20:33:57.172Z,6.03
2023-02-21T20:36:29.554Z,6.05
2023-02-21T20:38:56.409Z,10.05
2023-02-21T20:41:23.714Z,6.22
2023-02-21T20:43:50.387Z,8.07
2023-02-21T20:46:21.934Z,8.73
2023-02-21T20:48:49.154Z,7.60
2023-02-21T20:51:16.745Z,5.65
2023-02-21T20:53:46.212Z,4.90
2023-02-21T20:56:13.933Z,4.38
2023-02-21T20:58:40.825Z,4.13
2023-02-21T21:01:12.081Z,3.85
2023-02-21T21:03:40.102Z,5.10
2023-02-21T21:06:11.146Z,5.47
2023-02-21T21:08:37.828Z,5.07
2023-02-21T21:11:04.678Z,2.15
2023-02-21T21:13:31.373Z,4.07
2023-02-21T21:15:58.215Z,3.05
2023-02-21T21:18:24.973Z,3.05
2023-02-21T21:20:51.645Z,4.03
2023-02-21T21:23:19.080Z,3.22
2023-02-21T21:25:45.774Z,3.85
2023-02-21T21:28:13.155Z,5.65
2023-02-21T21:33:07.509Z,6.60
2023-02-21T21:35:37.161Z,4.68
2023-02-21T21:38:07.328Z,5.40
2023-02-21T21:40:34.064Z,6.68
2023-02-21T21:43:02.488Z,5.70
2023-02-21T21:45:29.318Z,3.33
2023-02-21T21:48:00.598Z,3.60
2023-02-21T21:50:27.568Z,4.35
2023-02-21T21:52:58.402Z,4.68
2023-02-21T21:55:27.860Z,5.10
2023-02-21T21:57:55.773Z,4.90
2023-02-21T22:00:25.183Z,4.53
2023-02-21T22:02:57.076Z,4.40
2023-02-21T22:05:26.241Z,4.22
2023-02-21T22:07:54.049Z,3.92
2023-02-21T22:10:21.852Z,3.67
2023-02-21T22:12:51.645Z,3.33
2023-02-21T22:15:24.057Z,3.63
2023-02-21T22:17:50.778Z,3.75
2023-02-21T22:20:19.784Z,4.55
2023-02-21T22:22:51.609Z,5.22
2023-02-21T22:25:20.389Z,5.13
2023-02-21T22:27:48.224Z,4.85
2023-02-21T22:30:20.387Z,4.70
2023-02-21T22:32:48.265Z,4.40
2023-02-21T22:35:20.396Z,4.70
2023-02-21T22:37:48.059Z,4.65
2023-02-21T22:40:17.789Z,4.95
2023-02-21T22:42:45.382Z,4.40
2023-02-21T22:45:12.236Z,5.05
2023-02-21T22:47:38.978Z,4.65
2023-02-21T22:50:06.022Z,4.28
2023-02-21T22:52:32.913Z,4.60
2023-02-21T22:54:59.606Z,4.50
2023-02-21T22:57:27.430Z,4.05
2023-02-21T22:59:55.706Z,3.75
2023-02-21T23:02:22.461Z,3.40
2023-02-21T23:04:49.425Z,2.60
2023-02-21T23:07:17.263Z,2.00
2023-02-21T23:09:44.020Z,2.20
2023-02-21T23:12:11.193Z,2.40
2023-02-21T23:14:39.427Z,4.13
2023-02-21T23:17:06.459Z,11.43
2023-02-21T23:19:33.177Z,9.93
2023-02-21T23:22:00.053Z,7.05
2023-02-21T23:24:28.082Z,8.45
2023-02-21T23:26:54.993Z,8.20
2023-02-21T23:29:24.242Z,10.63
2023-02-21T23:31:54.082Z,6.95
2023-02-21T23:34:20.810Z,4.15
2023-02-21T23:36:49.224Z,5.45
2023-02-21T23:39:16.043Z,4.47
2023-02-21T23:41:48.497Z,5.00
2023-02-21T23:44:15.729Z,4.10
2023-02-21T23:46:44.411Z,4.50
2023-02-21T23:49:15.489Z,4.13
2023-02-21T23:51:43.944Z,3.97
2023-02-21T23:54:11.322Z,4.50
